createdAt,value
2023-05-06T00:01:24.337Z,97349.31
2023-05-06T00:03:51.605Z,97334.34
2023-05-06T00:06:18.348Z,97344.63
2023-05-06T00:08:45.883Z,97344.09
2023-05-06T00:11:13.665Z,97352.19
2023-05-06T00:13:40.545Z,97342.38
2023-05-06T00:16:07.249Z,97339.09
2023-05-06T00:18:33.782Z,97338.50
2023-05-06T00:21:00.358Z,97334.47
2023-05-06T00:23:26.818Z,97339.66
2023-05-06T00:25:54.644Z,97336.84
2023-05-06T00:28:21.165Z,97334.38
2023-05-06T00:30:47.633Z,97330.34
2023-05-06T00:33:14.105Z,97322.41
2023-05-06T00:35:40.549Z,97328.91
2023-05-06T00:38:09.555Z,97335.69
2023-05-06T00:40:36.414Z,97334.53
2023-05-06T00:43:03.446Z,97337.25
2023-05-06T00:45:30.043Z,97335.03
2023-05-06T00:47:57.561Z,97337.41
2023-05-06T00:50:24.854Z,97341.50
2023-05-06T00:52:51.847Z,97336.59
2023-05-06T00:55:18.431Z,97342.00
2023-05-06T00:57:45.038Z,97341.69
2023-05-06T01:00:11.796Z,97336.59
2023-05-06T01:02:46.853Z,97332.16
2023-05-06T01:05:17.589Z,97334.22
2023-05-06T01:07:52.275Z,97339.63
2023-05-06T01:10:33.741Z,97335.09
2023-05-06T01:13:21.322Z,97336.50
2023-05-06T01:15:53.994Z,97330.50
2023-05-06T01:18:26.355Z,97335.13
2023-05-06T01:20:54.750Z,97327.25
2023-05-06T01:23:21.482Z,97336.50
2023-05-06T01:25:48.143Z,97344.06
2023-05-06T01:28:16.897Z,97338.09
2023-05-06T01:30:52.986Z,97340.28
2023-05-06T01:33:29.963Z,97340.03
2023-05-06T01:36:04.327Z,97337.88
2023-05-06T01:38:45.947Z,97340.38
2023-05-06T01:41:16.019Z,97341.16
2023-05-06T01:43:44.637Z,97343.34
2023-05-06T01:46:17.820Z,97347.44
2023-05-06T01:48:46.349Z,97342.31
2023-05-06T01:51:12.955Z,97349.09
2023-05-06T01:53:39.393Z,97342.31
2023-05-06T01:56:05.982Z,97347.72
2023-05-06T01:58:32.494Z,97335.78
2023-05-06T02:00:58.973Z,97334.41
2023-05-06T02:03:25.687Z,97346.31
2023-05-06T02:05:52.458Z,97339.06
2023-05-06T02:08:20.586Z,97331.47
2023-05-06T02:10:47.118Z,97339.63
2023-05-06T02:13:13.648Z,97342.09
2023-05-06T02:15:40.177Z,97339.09
2023-05-06T02:18:09.726Z,97341.50
2023-05-06T02:20:36.170Z,97330.94
2023-05-06T02:23:03.160Z,97331.75
2023-05-06T02:25:29.811Z,97337.75
2023-05-06T02:27:56.320Z,97337.00
2023-05-06T02:30:22.761Z,97333.72
2023-05-06T02:32:49.230Z,97337.53
2023-05-06T02:35:16.039Z,97336.53
2023-05-06T02:37:42.921Z,97336.69
2023-05-06T02:40:09.964Z,97340.41
2023-05-06T02:42:37.242Z,97338.22
2023-05-06T02:45:04.120Z,97333.31
2023-05-06T02:47:32.105Z,97320.56
2023-05-06T02:49:58.652Z,97326.22
2023-05-06T02:52:25.353Z,97321.56
2023-05-06T02:54:52.131Z,97317.97
2023-05-06T02:57:18.605Z,97321.03
2023-05-06T02:59:45.019Z,97323.03
2023-05-06T03:02:11.507Z,97323.78
2023-05-06T03:04:37.986Z,97323.19
2023-05-06T03:07:04.450Z,97322.44
2023-05-06T03:09:30.958Z,97320.09
2023-05-06T03:11:57.492Z,97326.78
2023-05-06T03:14:24.164Z,97320.31
2023-05-06T03:16:50.797Z,97329.25
2023-05-06T03:19:17.725Z,97334.09
2023-05-06T03:21:44.934Z,97331.59
2023-05-06T03:24:11.598Z,97331.94
2023-05-06T03:26:38.439Z,97330.84
2023-05-06T03:29:05.408Z,97340.03
2023-05-06T03:31:32.504Z,97333.44
2023-05-06T03:34:00.668Z,97331.00
2023-05-06T03:36:27.909Z,97327.84
2023-05-06T03:38:55.135Z,97323.66
2023-05-06T03:41:23.200Z,97323.81
2023-05-06T03:43:49.720Z,97327.25
2023-05-06T03:46:19.021Z,97322.72
2023-05-06T03:48:45.577Z,97327.78
2023-05-06T03:51:15.284Z,97335.06
2023-05-06T03:53:41.902Z,97334.25
2023-05-06T03:56:08.604Z,97336.72
2023-05-06T03:58:36.659Z,97320.16
2023-05-06T04:01:05.511Z,97332.00
2023-05-06T04:03:32.737Z,97328.94
2023-05-06T04:05:59.564Z,97323.69
2023-05-06T04:08:26.669Z,97326.22
2023-05-06T04:10:54.884Z,97320.81
2023-05-06T04:13:27.633Z,97328.16
2023-05-06T04:15:56.701Z,97323.84
2023-05-06T04:18:27.659Z,97325.81
2023-05-06T04:21:00.110Z,97323.50
2023-05-06T04:23:28.402Z,97327.22
2023-05-06T04:25:57.813Z,97325.44
2023-05-06T04:28:24.990Z,97323.13
2023-05-06T04:30:52.764Z,97332.25
2023-05-06T04:33:22.285Z,97325.31
2023-05-06T04:35:56.077Z,97335.59
2023-05-06T04:38:25.733Z,97332.63
2023-05-06T04:40:52.805Z,97335.59
2023-05-06T04:43:19.534Z,97334.53
2023-05-06T04:45:51.487Z,97335.94
2023-05-06T04:48:23.179Z,97344.69
2023-05-06T04:50:51.362Z,97337.81
2023-05-06T04:53:17.835Z,97333.72
2023-05-06T04:55:44.342Z,97352.78
2023-05-06T04:58:10.975Z,97356.56
2023-05-06T05:00:38.117Z,97354.88
2023-05-06T05:03:04.890Z,97352.91
2023-05-06T05:05:33.383Z,97363.72
2023-05-06T05:08:00.581Z,97366.56
2023-05-06T05:10:29.228Z,97359.75
2023-05-06T05:12:55.986Z,97366.06
2023-05-06T05:15:22.948Z,97366.19
2023-05-06T05:17:50.464Z,97370.94
2023-05-06T05:20:17.923Z,97364.69
2023-05-06T05:22:44.437Z,97356.44
2023-05-06T05:25:11.335Z,97364.16
2023-05-06T05:27:37.984Z,97363.53
2023-05-06T05:30:04.909Z,97362.03
2023-05-06T05:32:34.484Z,97357.88
2023-05-06T05:35:00.926Z,97358.78
2023-05-06T05:37:27.405Z,97365.66
2023-05-06T05:39:53.881Z,97370.69
2023-05-06T05:42:20.636Z,97367.53
2023-05-06T05:44:47.761Z,97365.72
2023-05-06T05:47:15.350Z,97363.94
2023-05-06T05:49:41.859Z,97358.91
2023-05-06T05:52:09.756Z,97358.69
2023-05-06T05:54:37.225Z,97354.97
2023-05-06T05:57:04.220Z,97370.75
2023-05-06T05:59:32.792Z,97362.09
2023-05-06T06:02:02.701Z,97364.63
2023-05-06T06:04:29.441Z,97364.94
2023-05-06T06:07:01.839Z,97361.16
2023-05-06T06:09:30.593Z,97361.72
2023-05-06T06:11:59.178Z,97360.34
2023-05-06T06:14:25.720Z,97363.38
2023-05-06T06:16:53.141Z,97363.38
2023-05-06T06:19:20.550Z,97373.69
2023-05-06T06:21:47.238Z,97374.78
2023-05-06T06:24:14.572Z,97369.88
2023-05-06T06:26:41.063Z,97372.66
2023-05-06T06:29:07.748Z,97379.19
2023-05-06T06:31:34.779Z,97377.81
2023-05-06T06:34:05.166Z,97381.66
2023-05-06T06:36:32.170Z,97377.28
2023-05-06T06:38:58.623Z,97389.81
2023-05-06T06:41:27.120Z,97392.81
2023-05-06T06:43:53.879Z,97389.34
2023-05-06T06:46:25.107Z,97392.06
2023-05-06T06:48:51.590Z,97383.88
2023-05-06T06:51:18.008Z,97388.22
2023-05-06T06:53:44.520Z,97389.59
2023-05-06T06:56:12.280Z,97397.78
2023-05-06T06:58:38.746Z,97394.22
2023-05-06T07:01:05.520Z,97393.34
2023-05-06T07:03:31.985Z,97390.59
2023-05-06T07:05:58.535Z,97402.53
2023-05-06T07:08:25.195Z,97402.25
2023-05-06T07:10:51.602Z,97400.53
2023-05-06T07:13:20.524Z,97390.91
2023-05-06T07:15:47.094Z,97396.06
2023-05-06T07:18:13.684Z,97402.25
2023-05-06T07:20:40.533Z,97403.03
2023-05-06T07:23:06.968Z,97402.63
2023-05-06T07:25:33.513Z,97400.75
2023-05-06T07:27:59.989Z,97398.66
2023-05-06T07:30:26.520Z,97404.78
2023-05-06T07:32:53.253Z,97400.63
2023-05-06T07:35:19.713Z,97399.47
2023-05-06T07:37:46.700Z,97394.78
2023-05-06T07:40:13.270Z,97401.97
2023-05-06T07:42:42.684Z,97399.25
2023-05-06T07:45:10.134Z,97393.28
2023-05-06T07:47:36.924Z,97396.25
2023-05-06T07:50:05.911Z,97402.53
2023-05-06T07:52:32.567Z,97405.31
2023-05-06T07:54:59.069Z,97401.59
2023-05-06T07:57:25.531Z,97403.09
2023-05-06T07:59:52.819Z,97407.28
2023-05-06T08:02:19.373Z,97413.09
2023-05-06T08:04:46.469Z,97414.94
2023-05-06T08:07:13.191Z,97417.06
2023-05-06T08:09:39.719Z,97422.63
2023-05-06T08:12:06.257Z,97418.66
2023-05-06T08:14:32.706Z,97417.22
2023-05-06T08:16:59.216Z,97416.53
2023-05-06T08:19:26.504Z,97417.34
2023-05-06T08:21:53.018Z,97420.81
2023-05-06T08:24:20.163Z,97421.94
2023-05-06T08:26:46.669Z,97418.16
2023-05-06T08:29:13.503Z,97420.81
2023-05-06T08:31:40.047Z,97419.13
2023-05-06T08:34:06.624Z,97421.31
2023-05-06T08:36:33.137Z,97414.31
2023-05-06T08:38:59.546Z,97420.41
2023-05-06T08:41:27.374Z,97420.28
2023-05-06T08:43:55.398Z,97423.16
2023-05-06T08:46:22.819Z,97427.63
2023-05-06T08:48:49.412Z,97422.44
2023-05-06T08:51:16.264Z,97422.09
2023-05-06T08:53:47.749Z,97421.91
2023-05-06T08:56:15.182Z,97422.81
2023-05-06T08:58:45.537Z,97418.59
2023-05-06T09:01:12.260Z,97418.25
2023-05-06T09:03:38.863Z,97423.41
2023-05-06T09:06:05.592Z,97434.78
2023-05-06T09:08:32.041Z,97430.16
2023-05-06T09:10:58.475Z,97415.06
2023-05-06T09:13:24.908Z,97411.28
2023-05-06T09:15:55.201Z,97419.94
2023-05-06T09:18:22.485Z,97416.75
2023-05-06T09:20:49.906Z,97419.13
2023-05-06T09:23:17.991Z,97417.44
2023-05-06T09:25:46.733Z,97414.22
2023-05-06T09:28:14.400Z,97416.03
2023-05-06T09:30:42.622Z,97421.13
2023-05-06T09:33:09.637Z,97413.94
2023-05-06T09:35:41.894Z,97414.31
2023-05-06T09:38:08.814Z,97406.94
2023-05-06T09:40:36.635Z,97405.91
2023-05-06T09:43:03.687Z,97410.84
2023-05-06T09:45:30.776Z,97407.44
2023-05-06T09:47:58.582Z,97404.41
2023-05-06T09:50:26.422Z,97404.41
2023-05-06T09:52:55.107Z,97395.34
2023-05-06T09:55:23.238Z,97391.00
2023-05-06T09:57:50.010Z,97392.53
2023-05-06T10:00:17.367Z,97398.44
2023-05-06T10:02:45.561Z,97394.16
2023-05-06T10:05:13.270Z,97392.72
2023-05-06T10:07:42.218Z,97387.94
2023-05-06T10:10:11.297Z,97384.50
2023-05-06T10:12:37.947Z,97390.66
2023-05-06T10:15:05.393Z,97389.84
2023-05-06T10:17:33.338Z,97384.88
2023-05-06T10:20:01.707Z,97383.16
2023-05-06T10:22:38.154Z,97384.50
2023-05-06T10:25:17.051Z,97380.81
2023-05-06T10:27:45.113Z,97376.88
2023-05-06T10:30:14.702Z,97371.81
2023-05-06T10:32:43.373Z,97378.31
2023-05-06T10:35:34.193Z,97364.81
2023-05-06T10:38:03.950Z,97355.25
2023-05-06T10:40:31.275Z,97361.22
2023-05-06T10:43:28.129Z,97367.88
2023-05-06T10:46:09.406Z,97358.81
2023-05-06T10:48:59.792Z,97348.88
2023-05-06T10:51:28.298Z,97348.03
2023-05-06T10:54:04.574Z,97340.75
2023-05-06T10:56:51.068Z,97339.94
2023-05-06T10:59:23.553Z,97346.31
2023-05-06T11:02:10.432Z,97335.88
2023-05-06T11:04:37.541Z,97336.22
2023-05-06T11:07:12.294Z,97329.25
2023-05-06T11:09:59.791Z,97329.88
2023-05-06T11:12:49.597Z,97328.09
2023-05-06T11:15:40.157Z,97329.69
2023-05-06T11:18:24.685Z,97328.03
2023-05-06T11:21:01.309Z,97328.72
2023-05-06T11:23:43.210Z,97322.28
2023-05-06T11:26:11.103Z,97321.78
2023-05-06T11:28:38.847Z,97323.72
2023-05-06T11:31:05.999Z,97318.03
2023-05-06T11:33:34.185Z,97317.34
2023-05-06T11:36:01.370Z,97314.00
2023-05-06T11:38:44.082Z,97316.00
2023-05-06T11:41:10.926Z,97313.91
2023-05-06T11:43:37.383Z,97312.81
2023-05-06T11:46:03.943Z,97310.19
2023-05-06T11:48:30.576Z,97314.25
2023-05-06T11:50:57.103Z,97321.19
2023-05-06T11:53:24.351Z,97327.94
2023-05-06T11:55:53.922Z,97318.88
2023-05-06T11:58:24.803Z,97316.94
2023-05-06T12:00:59.590Z,97313.50
2023-05-06T12:03:28.635Z,97313.94
2023-05-06T12:05:56.155Z,97318.09
2023-05-06T12:08:28.318Z,97328.97
2023-05-06T12:11:07.205Z,97316.69
2023-05-06T12:13:37.773Z,97317.31
2023-05-06T12:16:06.259Z,97317.16
2023-05-06T12:18:33.212Z,97315.22
2023-05-06T12:21:02.666Z,97316.44
2023-05-06T12:23:29.422Z,97315.38
2023-05-06T12:26:05.266Z,97308.38
2023-05-06T12:28:33.182Z,97303.63
2023-05-06T12:31:00.731Z,97316.44
2023-05-06T12:33:27.191Z,97308.56
2023-05-06T12:35:56.961Z,97310.63
2023-05-06T12:38:23.451Z,97315.28
2023-05-06T12:40:54.952Z,97312.81
2023-05-06T12:43:30.233Z,97313.47
2023-05-06T12:46:07.079Z,97309.56
2023-05-06T12:48:33.838Z,97303.09
2023-05-06T12:51:00.318Z,97308.72
2023-05-06T12:53:34.870Z,97301.84
2023-05-06T12:56:01.354Z,97303.03
2023-05-06T12:58:27.884Z,97299.16
2023-05-06T13:00:54.344Z,97295.88
2023-05-06T13:03:21.079Z,97291.88
2023-05-06T13:05:49.991Z,97291.69
2023-05-06T13:08:16.660Z,97287.09
2023-05-06T13:10:43.091Z,97288.47
2023-05-06T13:13:09.549Z,97285.31
2023-05-06T13:15:36.327Z,97284.81
2023-05-06T13:18:03.040Z,97275.78
2023-05-06T13:20:30.728Z,97265.38
2023-05-06T13:22:57.181Z,97259.34
2023-05-06T13:25:23.654Z,97249.50
2023-05-06T13:27:50.187Z,97252.00
2023-05-06T13:30:16.914Z,97249.28
2023-05-06T13:32:43.392Z,97243.53
2023-05-06T13:35:10.293Z,97243.03
2023-05-06T13:37:37.006Z,97239.16
2023-05-06T13:40:04.797Z,97237.59
2023-05-06T13:42:31.256Z,97243.19
2023-05-06T13:44:57.699Z,97248.38
2023-05-06T13:47:24.298Z,97243.00
2023-05-06T13:49:51.003Z,97238.59
2023-05-06T13:52:17.473Z,97237.69
2023-05-06T13:54:44.901Z,97234.41
2023-05-06T13:57:11.450Z,97227.91
2023-05-06T13:59:37.865Z,97218.28
2023-05-06T14:02:08.218Z,97224.81
2023-05-06T14:04:36.060Z,97225.63
2023-05-06T14:07:02.597Z,97229.53
2023-05-06T14:09:29.051Z,97234.19
2023-05-06T14:11:55.570Z,97230.31
2023-05-06T14:14:21.956Z,97223.16
2023-05-06T14:16:48.415Z,97222.38
2023-05-06T14:19:14.852Z,97223.50
2023-05-06T14:21:41.243Z,97217.88
2023-05-06T14:24:08.183Z,97223.50
2023-05-06T14:26:34.806Z,97213.72
2023-05-06T14:29:01.377Z,97207.28
2023-05-06T14:31:29.497Z,97208.84
2023-05-06T14:33:56.349Z,97207.63
2023-05-06T14:36:22.902Z,97201.94
2023-05-06T14:38:49.399Z,97203.56
2023-05-06T14:41:15.839Z,97191.84
2023-05-06T14:43:42.279Z,97199.19
2023-05-06T14:46:08.799Z,97192.66
2023-05-06T14:48:35.334Z,97196.97
2023-05-06T14:51:01.861Z,97201.22
2023-05-06T14:53:28.359Z,97191.84
2023-05-06T14:55:56.307Z,97196.19
2023-05-06T14:58:22.867Z,97189.25
2023-05-06T15:00:49.372Z,97188.56
2023-05-06T15:03:15.873Z,97186.28
2023-05-06T15:05:42.348Z,97185.25
2023-05-06T15:08:09.885Z,97183.16
2023-05-06T15:10:36.443Z,97182.94
2023-05-06T15:13:03.037Z,97180.78
2023-05-06T15:15:29.623Z,97182.59
2023-05-06T15:17:56.132Z,97181.25
2023-05-06T15:20:22.686Z,97183.19
2023-05-06T15:22:49.264Z,97181.19
2023-05-06T15:25:30.174Z,97183.63
2023-05-06T15:28:00.581Z,97178.19
2023-05-06T15:30:27.120Z,97186.38
2023-05-06T15:32:53.651Z,97188.47
2023-05-06T15:35:20.379Z,97193.38
2023-05-06T15:37:47.192Z,97185.94
2023-05-06T15:40:13.780Z,97184.75
2023-05-06T15:42:40.671Z,97186.75
2023-05-06T15:45:07.710Z,97192.22
2023-05-06T15:47:34.261Z,97187.06
2023-05-06T15:50:01.566Z,97189.38
2023-05-06T15:52:28.548Z,97185.94
2023-05-06T15:54:59.512Z,97182.16
2023-05-06T15:57:26.425Z,97172.88
2023-05-06T15:59:52.916Z,97179.00
2023-05-06T16:04:49.134Z,97174.88
2023-05-06T16:07:16.594Z,97178.94
2023-05-06T16:09:43.475Z,97176.56
2023-05-06T16:12:10.054Z,97168.38
2023-05-06T16:14:36.815Z,97167.13
2023-05-06T16:17:03.394Z,97162.06
2023-05-06T16:19:31.993Z,97172.41
2023-05-06T16:21:58.477Z,97169.09
2023-05-06T16:24:24.919Z,97177.22
2023-05-06T16:26:51.782Z,97171.41
2023-05-06T16:29:20.469Z,97171.59
2023-05-06T16:31:47.685Z,97157.00
2023-05-06T16:34:14.813Z,97164.59
2023-05-06T16:36:41.393Z,97165.81
2023-05-06T16:39:08.312Z,97155.72
2023-05-06T16:41:34.806Z,97159.75
2023-05-06T16:44:01.648Z,97157.69
2023-05-06T16:46:28.910Z,97165.13
2023-05-06T16:48:55.868Z,97163.13
2023-05-06T16:51:22.548Z,97155.25
2023-05-06T16:53:49.202Z,97149.75
2023-05-06T16:56:15.973Z,97152.84
2023-05-06T16:58:42.852Z,97153.44
2023-05-06T17:01:09.678Z,97148.25
2023-05-06T17:03:40.324Z,97147.47
2023-05-06T17:06:07.285Z,97150.72
2023-05-06T17:08:36.336Z,97149.56
2023-05-06T17:11:06.698Z,97131.97
2023-05-06T17:13:33.818Z,97133.88
2023-05-06T17:16:00.323Z,97140.69
2023-05-06T17:18:26.858Z,97133.72
2023-05-06T17:20:56.626Z,97135.34
2023-05-06T17:23:23.744Z,97137.78
2023-05-06T17:25:50.875Z,97128.25
2023-05-06T17:28:18.696Z,97135.53
2023-05-06T17:30:45.781Z,97134.06
2023-05-06T17:33:12.582Z,97138.59
2023-05-06T17:35:39.255Z,97131.50
2023-05-06T17:38:05.829Z,97124.53
2023-05-06T17:40:32.270Z,97126.28
2023-05-06T17:42:58.775Z,97124.53
2023-05-06T17:45:26.688Z,97116.88
2023-05-06T17:47:53.379Z,97121.88
2023-05-06T17:50:19.979Z,97122.53
2023-05-06T17:52:48.787Z,97123.97
2023-05-06T17:55:17.330Z,97127.81
2023-05-06T17:57:44.257Z,97117.75
2023-05-06T18:00:11.457Z,97121.25
2023-05-06T18:02:42.180Z,97124.47
2023-05-06T18:05:09.496Z,97131.19
2023-05-06T18:07:36.391Z,97127.13
2023-05-06T18:10:02.922Z,97127.69
2023-05-06T18:12:30.803Z,97126.38
2023-05-06T18:14:57.820Z,97130.75
2023-05-06T18:17:24.436Z,97133.22
2023-05-06T18:19:50.943Z,97134.19
2023-05-06T18:22:17.440Z,97144.59
2023-05-06T18:24:43.959Z,97138.09
2023-05-06T18:27:10.376Z,97143.91
2023-05-06T18:29:36.778Z,97147.44
2023-05-06T18:32:03.930Z,97146.38
2023-05-06T18:34:30.598Z,97157.16
2023-05-06T18:36:57.916Z,97161.88
2023-05-06T18:39:24.470Z,97161.81
2023-05-06T18:41:50.897Z,97159.09
2023-05-06T18:44:17.326Z,97159.03
2023-05-06T18:46:43.727Z,97160.81
2023-05-06T18:49:10.278Z,97161.78
2023-05-06T18:51:37.149Z,97162.53
2023-05-06T18:54:03.566Z,97162.97
2023-05-06T18:56:30.027Z,97169.34
2023-05-06T18:58:56.520Z,97168.97
2023-05-06T19:01:24.948Z,97178.19
2023-05-06T19:03:54.509Z,97171.75
2023-05-06T19:06:20.991Z,97175.53
2023-05-06T19:08:47.586Z,97181.53
2023-05-06T19:11:21.188Z,97178.53
2023-05-06T19:13:47.710Z,97185.66
2023-05-06T19:16:14.257Z,97185.38
2023-05-06T19:18:40.828Z,97188.63
2023-05-06T19:21:09.893Z,97184.31
2023-05-06T19:23:36.624Z,97189.00
2023-05-06T19:26:05.678Z,97191.38
2023-05-06T19:28:33.350Z,97189.16
2023-05-06T19:30:59.859Z,97190.50
2023-05-06T19:33:26.397Z,97191.28
2023-05-06T19:35:52.851Z,97194.28
2023-05-06T19:38:19.711Z,97186.41
2023-05-06T19:40:46.154Z,97183.13
2023-05-06T19:43:12.604Z,97180.41
2023-05-06T19:45:39.702Z,97189.16
2023-05-06T19:48:08.336Z,97185.88
2023-05-06T19:50:34.931Z,97185.44
2023-05-06T19:53:01.350Z,97182.81
2023-05-06T19:55:27.868Z,97194.53
2023-05-06T19:57:57.533Z,97201.88
2023-05-06T20:00:25.486Z,97198.38
2023-05-06T20:02:52.099Z,97198.63
2023-05-06T20:05:18.703Z,97198.66
2023-05-06T20:07:45.332Z,97199.72
2023-05-06T20:10:13.482Z,97189.38
2023-05-06T20:12:41.034Z,97196.50
2023-05-06T20:15:09.010Z,97189.44
2023-05-06T20:17:35.806Z,97194.88
2023-05-06T20:20:09.096Z,97190.50
2023-05-06T20:22:39.872Z,97190.50
2023-05-06T20:25:11.393Z,97202.75
2023-05-06T20:27:38.243Z,97193.22
2023-05-06T20:30:07.166Z,97190.78
2023-05-06T20:32:33.867Z,97191.03
2023-05-06T20:35:00.493Z,97193.50
2023-05-06T20:37:28.202Z,97192.69
2023-05-06T20:39:54.657Z,97201.94
2023-05-06T20:42:21.124Z,97202.19
2023-05-06T20:44:50.382Z,97194.31
2023-05-06T20:47:17.087Z,97197.28
2023-05-06T20:49:43.550Z,97201.66
2023-05-06T20:52:14.329Z,97198.66
2023-05-06T20:54:44.399Z,97197.31
2023-05-06T20:57:13.222Z,97194.88
2023-05-06T20:59:39.714Z,97199.19
2023-05-06T21:02:06.437Z,97195.66
2023-05-06T21:04:33.396Z,97187.78
2023-05-06T21:06:59.863Z,97194.88
2023-05-06T21:09:29.303Z,97188.91
2023-05-06T21:11:56.304Z,97184.53
2023-05-06T21:14:26.317Z,97186.97
2023-05-06T21:16:53.167Z,97187.00
2023-05-06T21:19:19.865Z,97182.38
2023-05-06T21:21:46.470Z,97185.06
2023-05-06T21:24:13.149Z,97183.16
2023-05-06T21:26:39.881Z,97185.59
2023-05-06T21:29:06.368Z,97186.16
2023-05-06T21:31:32.924Z,97179.09
2023-05-06T21:33:59.467Z,97183.16
2023-05-06T21:36:26.092Z,97171.19
2023-05-06T21:39:09.611Z,97174.97
2023-05-06T21:41:36.589Z,97171.69
2023-05-06T21:44:04.357Z,97170.06
2023-05-06T21:46:31.512Z,97177.38
2023-05-06T21:48:58.158Z,97170.19
2023-05-06T21:51:27.893Z,97163.06
2023-05-06T21:53:54.624Z,97165.13
2023-05-06T21:56:21.895Z,97163.59
2023-05-06T21:58:48.805Z,97165.38
2023-05-06T22:01:15.564Z,97167.81
2023-05-06T22:03:42.198Z,97168.72
2023-05-06T22:06:08.749Z,97169.22
2023-05-06T22:08:35.227Z,97166.47
2023-05-06T22:11:01.764Z,97169.44
2023-05-06T22:13:28.324Z,97171.13
2023-05-06T22:15:54.894Z,97172.75
2023-05-06T22:18:21.614Z,97175.22
2023-05-06T22:20:49.284Z,97173.56
2023-05-06T22:23:15.804Z,97174.63
2023-05-06T22:25:42.251Z,97165.97
2023-05-06T22:28:08.677Z,97172.09
2023-05-06T22:30:35.079Z,97166.94
2023-05-06T22:33:01.621Z,97164.22
2023-05-06T22:35:28.099Z,97169.84
2023-05-06T22:37:54.547Z,97173.41
2023-05-06T22:40:21.082Z,97168.63
2023-05-06T22:42:48.180Z,97170.63
2023-05-06T22:45:14.697Z,97175.31
2023-05-06T22:47:41.251Z,97176.47
2023-05-06T22:50:08.063Z,97170.03
2023-05-06T22:52:34.601Z,97165.69
2023-05-06T22:55:01.068Z,97161.94
2023-05-06T22:57:27.578Z,97163.22
2023-05-06T22:59:54.058Z,97156.72
2023-05-06T23:02:20.477Z,97161.47
2023-05-06T23:04:46.979Z,97167.13
2023-05-06T23:07:13.845Z,97167.19
2023-05-06T23:09:40.426Z,97175.91
2023-05-06T23:12:07.534Z,97172.00
2023-05-06T23:14:33.977Z,97168.41
2023-05-06T23:17:00.447Z,97171.28
2023-05-06T23:19:26.931Z,97172.50
2023-05-06T23:21:53.496Z,97176.41
2023-05-06T23:24:19.937Z,97173.47
2023-05-06T23:26:46.357Z,97176.66
2023-05-06T23:29:12.856Z,97167.69
2023-05-06T23:31:39.426Z,97168.88
2023-05-06T23:34:05.934Z,97173.75
2023-05-06T23:36:32.373Z,97171.50
2023-05-06T23:38:58.813Z,97178.00
2023-05-06T23:41:25.250Z,97177.78
2023-05-06T23:43:51.646Z,97175.88
2023-05-06T23:46:18.089Z,97165.69
2023-05-06T23:48:44.593Z,97161.69
2023-05-06T23:51:11.059Z,97155.66
2023-05-06T23:53:37.493Z,97154.84
2023-05-06T23:56:04.184Z,97161.03
2023-05-06T23:58:30.646Z,97155.63
